Organ, NM

11:57 PM MDT on August 03, 2015 (GMT -0600)
RAWS | | Change Station
CLOSE
Current Station
Personal Weather Station
Location: Organ, NM
Elevation: 6138 ft
Nearby Weather Stations

Elev 6138 ft 32.58 °N, 106.53 °W | Updated 56 minutes ago

Overcast
Overcast
68.0 °F
Feels Like 68.0 °F
N
5.0
Wind Variable Wind from SW
Gusts 10.0 mph

Today
High -- | Low -- °F
--% Chance of Precip.
Yesterday
High -- | Low -- °F
Precip. -- in
6:21 AM 8:02 PM
Waning Gibbous, 80% visible
Pressure 30.15 in
Visibility 10.0 miles
Clouds Mostly Cloudy 5000 ft
Overcast 7000 ft
Dew Point 59.0 °F
Humidity 72%
Rainfall in
Snow Depth Not available.
UV 0 out of 12
Pollen 3.70 out of 12
Air Quality Not available.
Flu Activity Not available.
METAR KLRU 040535Z AUTO 06010G18KT 10SM RA BKN050 OVC070 25/16 A3015 RMK AO2 LTG DSNT N THRU E T02480159

More Conditions Fewer Conditions

Pressure 30.15 in
Visibility 10.0 miles
Clouds Mostly Cloudy 5000 ft
Overcast 7000 ft
Dew Point 59.0 °F
Humidity 72%
Rainfall in
Snow Depth Not available.
UV 0 out of 12
Pollen 3.70 out of 12
Air Quality Not available.
Flu Activity Not available.
METAR KLRU 040535Z AUTO 06010G18KT 10SM RA BKN050 OVC070 25/16 A3015 RMK AO2 LTG DSNT N THRU E T02480159

More Conditions Fewer Conditions

Nowcast | as of 10:49 PM MDT on August 3, 2015

At 1050 PM MDT...isolated showers and thunderstorms were occurring over southern Hudspeth County and portions of Dona Ana and Otero counties. These storms were moving to the south at 10 to 15 mph. Periods of moderate to heavy rainfall...frequent lightning and wind gusts up to 45 mph will be possible. Minor localized flooding along drainages and arroyos may occur near heavier rainfall. Storms will continue for the next few hours.

×

10-Day Weather Forecast

×

Almanac

Astronomy

Aug. 03, 2015 Rise Set
Actual Time
Civil Twilight
Nautical Twilight
Astronomical Twilight
Moon
Length of Visible Light
Length of Day
Tomorrow will be .
, % of the Moon is Illuminated

Today's Extremes

State Highs State Lows

Community

WunderPhotos

Upload Photos

1,843,870 photos uploaded!

WunderBlogs® & News

Nearby

Air Quality

  Air Quality AQ Index Pollutant
Not available.

Snow Depth

Station Depth Elevation

Earthquake Activity

City Distance Mag. Time & Date
Minimum magnitude displayed is 2.5.

Coastal Water Temperatures

Place Temperature

Stations

Nearby Weather Stations

Station Location Temp. Windchill Dew Point Humidity Wind Precip. Elev Updated Type